Time;durP1;ratioP1;P1;durP2;ratioP2;P2;SDS_P1;SDS_P2;PMS_P1;PMS_P2;Temp;Humidity;BMP_temperature;BMP_pressure;BME280_temperature;BME280_humidity;BME280_pressure;Samples;Min_cycle;Max_cycle;Signal;HPM_P1;HPM_P2
2022/10/22 00:00:32;;;;;;;19.27;10.77;;;;;;;10.47;72.47;100020.53;4487055;31;33931;-78
2022/10/22 00:03:00;;;;;;;15.73;10.05;;;;;;;10.48;72.64;100009.34;4479593;32;32984;-78
2022/10/22 00:05:27;;;;;;;17.83;9.85;;;;;;;10.59;71.94;100008.19;4474650;31;34104;-76
2022/10/22 00:07:55;;;;;;;18.73;9.60;;;;;;;10.70;71.63;100022.53;4475278;31;34000;-78
2022/10/22 00:10:23;;;;;;;17.62;9.20;;;;;;;10.76;71.24;100014.19;4469941;31;32299;-78
2022/10/22 00:12:50;;;;;;;16.30;8.60;;;;;;;10.95;70.36;100010.72;4479812;31;33320;-78
2022/10/22 00:15:17;;;;;;;17.30;8.90;;;;;;;11.34;68.39;100009.06;4480094;31;33576;-78
2022/10/22 00:17:45;;;;;;;18.23;9.75;;;;;;;11.25;67.87;100000.00;4493597;31;34500;-78
2022/10/22 00:20:13;;;;;;;19.02;10.50;;;;;;;11.34;68.14;100003.88;4495291;31;33907;-78
2022/10/22 00:22:41;;;;;;;15.57;9.73;;;;;;;11.06;69.50;100014.69;4481281;31;34119;-78
2022/10/22 00:25:08;;;;;;;15.95;9.95;;;;;;;10.66;71.43;100012.81;4472963;31;34427;-78
2022/10/22 00:27:36;;;;;;;16.30;9.20;;;;;;;10.64;71.64;100006.69;4477702;31;34675;-78
2022/10/22 00:30:04;;;;;;;15.90;9.15;;;;;;;10.75;70.50;100000.31;4495047;31;34386;-78
2022/10/22 00:32:31;;;;;;;15.25;8.98;;;;;;;10.88;69.51;99999.19;4492153;31;34097;-77
2022/10/22 00:34:59;;;;;;;15.07;9.57;;;;;;;10.50;71.57;99997.38;4496087;31;33580;-78
2022/10/22 00:37:26;;;;;;;16.83;9.40;;;;;;;10.42;72.63;100002.19;4492185;31;34616;-78
2022/10/22 00:39:53;;;;;;;16.33;9.75;;;;;;;10.31;73.10;100001.66;4494770;31;33996;-78
2022/10/22 00:42:24;;;;;;;15.93;9.57;;;;;;;10.40;73.44;99996.91;4499007;31;34004;-78
2022/10/22 00:45:10;;;;;;;16.62;9.18;;;;;;;10.38;73.77;99993.37;4487125;31;33445;-78
2022/10/22 00:48:00;;;;;;;15.95;8.77;;;;;;;11.00;71.28;99985.91;4489928;31;34552;-78
2022/10/22 00:50:41;;;;;;;18.73;9.65;;;;;;;10.72;71.13;99982.03;4476136;31;34728;-77
2022/10/22 00:53:21;;;;;;;16.00;9.13;;;;;;;10.29;72.65;99985.13;4479977;31;34209;-77
2022/10/22 00:55:51;;;;;;;17.42;9.63;;;;;;;10.10;74.98;99987.63;4495364;31;33959;-78
2022/10/22 00:58:22;;;;;;;18.12;9.82;;;;;;;10.23;74.95;99992.59;4489145;31;33920;-77
2022/10/22 01:00:49;;;;;;;19.95;10.05;;;;;;;10.14;75.48;99994.72;4483281;31;33707;-78
2022/10/22 01:03:16;;;;;;;16.20;8.20;;;;;;;11.18;71.25;99989.34;4482563;31;33561;-78
2022/10/22 01:05:57;;;;;;;13.73;8.60;;;;;;;11.42;69.76;99996.44;4478269;31;33826;-78
2022/10/22 01:08:46;;;;;;;14.10;8.40;;;;;;;11.62;68.12;99984.34;4479622;32;34473;-78
2022/10/22 01:11:52;;;;;;;14.00;8.43;;;;;;;11.60;67.88;99986.84;4491270;31;34593;-78
2022/10/22 01:14:58;;;;;;;14.70;8.05;;;;;;;11.30;69.56;99994.19;4483672;31;33124;-78
2022/10/22 01:17:34;;;;;;;13.43;8.40;;;;;;;11.51;68.65;99986.47;4477485;31;32185;-78
2022/10/22 01:20:14;;;;;;;15.63;9.23;;;;;;;11.68;67.49;99991.50;4488888;31;34397;-78
2022/10/22 01:22:56;;;;;;;16.37;9.07;;;;;;;11.08;70.44;99992.31;4481309;31;34422;-77
2022/10/22 01:25:33;;;;;;;18.00;8.80;;;;;;;10.64;72.68;99988.53;4482044;31;33528;-78
2022/10/22 01:28:37;;;;;;;15.32;9.02;;;;;;;10.34;74.12;99987.97;4478105;31;33588;-78
2022/10/22 01:31:05;;;;;;;15.98;9.05;;;;;;;10.30;75.33;99996.38;4490811;31;34636;-78
2022/10/22 01:33:32;;;;;;;16.62;8.93;;;;;;;10.19;76.04;99988.06;4492820;31;33719;-78
2022/10/22 01:36:00;;;;;;;13.50;8.50;;;;;;;10.23;76.11;99995.19;4474772;31;34224;-78
2022/10/22 01:38:28;;;;;;;14.00;8.70;;;;;;;10.37;75.14;99990.69;4498447;31;33752;-78
2022/10/22 01:40:57;;;;;;;17.08;8.43;;;;;;;10.08;76.31;99997.00;4487998;31;33736;-78
2022/10/22 01:43:24;;;;;;;17.45;8.57;;;;;;;9.94;77.53;99992.03;4482010;31;34105;-78
2022/10/22 01:45:55;;;;;;;15.15;8.45;;;;;;;9.73;78.10;99985.78;4492839;31;34175;-77
2022/10/22 01:48:42;;;;;;;16.50;7.68;;;;;;;9.62;78.83;99988.72;4486744;31;33574;-77
2022/10/22 01:51:15;;;;;;;16.98;8.20;;;;;;;9.55;78.73;99984.03;4497016;31;34159;-78
2022/10/22 01:53:51;;;;;;;18.60;9.52;;;;;;;9.80;76.94;99988.75;4490091;31;34779;-77
2022/10/22 01:56:44;;;;;;;17.65;9.80;;;;;;;10.02;75.55;99979.47;4498656;31;33512;-77
2022/10/22 01:59:41;;;;;;;16.08;8.73;;;;;;;10.14;74.77;99974.91;4473717;32;33617;-77
2022/10/22 02:02:43;;;;;;;15.68;8.90;;;;;;;10.19;74.85;99985.50;4475482;31;33526;-78
2022/10/22 02:05:22;;;;;;;14.55;8.80;;;;;;;10.04;75.80;99978.75;4481713;31;33927;-78
2022/10/22 02:07:53;;;;;;;18.27;9.05;;;;;;;10.10;74.85;99967.81;4484117;31;33494;-77
2022/10/22 02:10:21;;;;;;;15.70;8.88;;;;;;;10.13;74.55;99972.25;4472670;31;34649;-78
2022/10/22 02:12:51;;;;;;;15.85;9.85;;;;;;;10.85;72.75;99967.06;4480405;32;32627;-78
2022/10/22 02:15:19;;;;;;;14.35;8.65;;;;;;;11.56;69.32;99961.59;4475529;32;34617;-78
2022/10/22 02:17:48;;;;;;;13.43;9.00;;;;;;;12.07;67.47;99949.91;4491972;31;34039;-78
2022/10/22 02:20:18;;;;;;;13.85;8.25;;;;;;;12.67;65.38;99961.00;4474681;31;33844;-78
2022/10/22 02:22:46;;;;;;;12.85;7.60;;;;;;;12.92;64.53;99964.50;4478231;32;34027;-78
2022/10/22 02:25:14;;;;;;;15.63;7.62;;;;;;;12.58;64.71;99965.81;4477626;31;34776;-78
2022/10/22 02:27:57;;;;;;;12.20;7.82;;;;;;;12.41;66.11;99966.88;4473346;31;33387;-78
2022/10/22 02:30:25;;;;;;;15.65;8.65;;;;;;;12.91;63.93;99957.56;4479094;31;33375;-77
2022/10/22 02:32:58;;;;;;;13.27;7.72;;;;;;;12.58;64.81;99971.03;4481068;32;33350;-78
2022/10/22 02:35:26;;;;;;;13.55;7.57;;;;;;;12.47;64.90;99961.91;4473753;31;34027;-78
2022/10/22 02:37:55;;;;;;;13.82;8.60;;;;;;;12.34;65.17;99966.62;4476102;32;33652;-78
2022/10/22 02:40:23;;;;;;;14.35;8.32;;;;;;;11.48;69.10;99970.78;4487288;31;34419;-78
2022/10/22 02:42:50;;;;;;;14.23;8.88;;;;;;;10.89;72.40;99975.03;4491779;31;33829;-78
2022/10/22 02:45:18;;;;;;;11.80;7.72;;;;;;;11.07;71.69;99980.19;4488884;31;34503;-78
2022/10/22 02:47:46;;;;;;;14.00;7.93;;;;;;;11.44;70.14;99984.44;4483870;31;34297;-78
2022/10/22 02:50:14;;;;;;;14.40;7.90;;;;;;;11.27;70.25;99991.44;4479403;31;34469;-77
2022/10/22 02:52:41;;;;;;;13.45;7.78;;;;;;;11.14;71.07;99995.19;4485357;31;34520;-78
2022/10/22 02:55:09;;;;;;;11.60;7.40;;;;;;;10.97;71.83;100002.22;4480449;31;33669;-78
2022/10/22 02:57:36;;;;;;;11.80;7.93;;;;;;;11.40;69.87;99990.31;4477631;31;33599;-77
2022/10/22 03:00:06;;;;;;;12.82;7.50;;;;;;;11.85;67.99;99985.31;4488092;31;34467;-78
2022/10/22 03:02:34;;;;;;;10.27;6.80;;;;;;;12.19;66.48;99986.78;4473826;32;35103;-78
2022/10/22 03:05:02;;;;;;;11.63;6.62;;;;;;;12.19;65.96;99986.78;4481338;31;33855;-78
2022/10/22 03:07:30;;;;;;;12.10;7.20;;;;;;;12.13;65.75;99982.22;4485443;31;34084;-79
2022/10/22 03:09:57;;;;;;;11.60;7.05;;;;;;;11.96;66.26;99993.63;4475162;31;33878;-78
2022/10/22 03:12:24;;;;;;;15.30;7.60;;;;;;;12.23;65.24;99988.69;4472737;31;33925;-78
2022/10/22 03:14:52;;;;;;;14.05;7.78;;;;;;;12.18;65.40;99977.22;4471730;31;33791;-79
2022/10/22 03:17:19;;;;;;;14.15;7.90;;;;;;;12.19;65.51;99966.00;4485168;31;33544;-78
2022/10/22 03:19:47;;;;;;;12.25;7.32;;;;;;;11.98;66.34;99968.59;4479827;31;33790;-77
2022/10/22 03:22:18;;;;;;;13.15;7.45;;;;;;;11.94;67.17;99966.72;4474407;31;32337;-77
2022/10/22 03:24:48;;;;;;;13.23;7.50;;;;;;;12.47;64.91;99961.91;4485522;31;34352;-79
2022/10/22 03:27:17;;;;;;;14.80;7.70;;;;;;;12.36;65.17;99953.69;4476438;32;33194;-79
2022/10/22 03:29:45;;;;;;;12.18;8.15;;;;;;;12.09;66.18;99945.66;4478953;31;33955;-78
2022/10/22 03:32:13;;;;;;;13.43;7.80;;;;;;;12.59;64.21;99946.78;4476598;31;33773;-79
2022/10/22 03:34:40;;;;;;;14.10;8.23;;;;;;;12.30;65.15;99953.44;4478491;31;33726;-77
2022/10/22 03:37:08;;;;;;;15.43;7.62;;;;;;;11.14;69.31;99953.69;4486154;31;33441;-78
2022/10/22 03:39:36;;;;;;;14.18;7.43;;;;;;;10.05;75.42;99948.56;4478655;31;33641;-78
2022/10/22 03:42:04;;;;;;;14.43;8.13;;;;;;;10.03;76.08;99961.44;4490303;31;34603;-78
2022/10/22 03:44:32;;;;;;;16.10;8.20;;;;;;;9.32;78.90;99956.09;4475412;31;34551;-78
2022/10/22 03:46:59;;;;;;;13.85;8.13;;;;;;;8.70;81.94;99955.41;4482697;31;33744;-77
2022/10/22 03:49:29;;;;;;;18.67;12.23;;;;;;;8.57;83.02;99960.69;4483878;31;33451;-78
2022/10/22 03:51:56;;;;;;;30.60;17.15;;;;;;;8.72;82.30;99953.78;4485760;31;34456;-77
2022/10/22 03:54:24;;;;;;;22.23;12.85;;;;;;;9.17;79.76;99945.81;4473335;31;33933;-77
2022/10/22 03:56:51;;;;;;;18.98;11.65;;;;;;;9.19;79.30;99937.38;4483324;31;33303;-78
2022/10/22 03:59:19;;;;;;;20.88;11.75;;;;;;;10.27;74.46;99939.25;4489849;31;34050;-78
2022/10/22 04:01:46;;;;;;;14.40;7.90;;;;;;;11.02;71.40;99942.78;4478839;31;33759;-78
2022/10/22 04:04:14;;;;;;;14.45;8.32;;;;;;;11.66;68.64;99946.44;4482235;31;34680;-79
2022/10/22 04:06:41;;;;;;;18.58;8.63;;;;;;;11.88;67.43;99956.91;4483676;31;34171;-77
2022/10/22 04:09:08;;;;;;;16.20;8.85;;;;;;;11.92;67.07;99960.56;4483995;31;34611;-78
2022/10/22 04:11:36;;;;;;;16.58;9.07;;;;;;;11.66;67.69;99956.81;4484396;31;34573;-78
2022/10/22 04:14:04;;;;;;;17.30;9.02;;;;;;;10.67;71.40;99969.69;4491671;31;34414;-78
2022/10/22 04:16:31;;;;;;;14.27;8.65;;;;;;;10.86;71.08;99953.28;4488664;31;33198;-77
2022/10/22 04:18:59;;;;;;;16.27;9.63;;;;;;;11.44;68.70;99950.72;4479901;31;33951;-78
2022/10/22 04:21:26;;;;;;;15.25;8.10;;;;;;;11.70;67.47;99958.72;4483235;31;33883;-77
2022/10/22 04:23:54;;;;;;;13.45;7.55;;;;;;;12.19;65.62;99963.41;4476934;31;34728;-78
2022/10/22 04:26:21;;;;;;;14.65;7.70;;;;;;;11.74;66.69;99958.03;4487305;31;33958;-77
2022/10/22 04:28:51;;;;;;;13.98;8.32;;;;;;;12.13;65.65;99957.94;4492949;31;34116;-78
2022/10/22 04:31:20;;;;;;;17.67;8.50;;;;;;;11.92;66.14;99951.06;4481762;31;33726;-77
2022/10/22 04:33:58;;;;;;;15.20;8.02;;;;;;;10.93;69.63;99939.78;4480252;31;34383;-78
2022/10/22 04:36:27;;;;;;;14.30;8.95;;;;;;;10.56;71.64;99953.63;4479609;31;33485;-78
2022/10/22 04:38:59;;;;;;;13.27;8.65;;;;;;;10.21;73.37;99945.03;4490959;31;34632;-78
2022/10/22 04:41:37;;;;;;;15.68;9.30;;;;;;;9.91;74.65;99950.50;4484556;31;33786;-78
2022/10/22 04:44:05;;;;;;;14.60;8.95;;;;;;;10.03;74.70;99961.44;4475457;31;34056;-78
2022/10/22 04:46:37;;;;;;;13.95;8.93;;;;;;;10.11;74.03;99953.16;4479219;31;34140;-78
2022/10/22 04:49:04;;;;;;;16.92;9.65;;;;;;;8.95;79.37;99959.31;4480827;31;33697;-77
2022/10/22 04:51:32;;;;;;;15.40;9.52;;;;;;;8.31;82.60;99960.09;4479883;31;34148;-77
2022/10/22 04:53:59;;;;;;;19.37;10.32;;;;;;;8.25;83.86;99946.88;4487451;31;34072;-77
2022/10/22 04:56:28;;;;;;;23.38;12.70;;;;;;;8.38;83.39;99943.25;4480916;31;34258;-78
2022/10/22 04:58:57;;;;;;;21.75;12.35;;;;;;;8.55;82.60;99951.97;4481515;31;34575;-77
2022/10/22 05:01:27;;;;;;;18.98;11.35;;;;;;;8.28;83.12;99952.19;4491708;31;33657;-77
2022/10/22 05:03:57;;;;;;;19.70;11.95;;;;;;;8.22;83.70;99951.84;4484114;31;33319;-77
2022/10/22 05:06:24;;;;;;;21.98;12.98;;;;;;;8.25;83.86;99962.34;4476025;32;33421;-77
2022/10/22 05:08:54;;;;;;;18.25;12.05;;;;;;;8.44;82.95;99962.59;4482602;31;33916;-77
2022/10/22 05:11:26;;;;;;;19.52;11.75;;;;;;;8.88;81.20;99952.03;4487643;31;33858;-78
2022/10/22 05:13:55;;;;;;;22.92;13.05;;;;;;;8.98;80.23;99949.13;4486986;31;36064;-78
2022/10/22 05:16:23;;;;;;;20.20;12.18;;;;;;;9.13;79.21;99943.88;4486258;31;34018;-78
2022/10/22 05:18:52;;;;;;;20.17;11.63;;;;;;;9.40;77.77;99954.78;4481880;31;33454;-77
2022/10/22 05:21:20;;;;;;;17.62;11.40;;;;;;;9.99;75.61;99946.56;4474912;31;34432;-78
2022/10/22 05:23:49;;;;;;;16.75;10.77;;;;;;;10.56;72.81;99956.22;4489150;31;33654;-77
2022/10/22 05:26:18;;;;;;;20.05;11.93;;;;;;;10.79;71.57;99953.00;4475448;31;33829;-78
2022/10/22 05:28:49;;;;;;;17.65;10.45;;;;;;;11.17;69.62;99952.97;4479666;31;34544;-78
2022/10/22 05:31:17;;;;;;;17.00;9.65;;;;;;;10.56;71.77;99959.69;4482416;31;34487;-78
2022/10/22 05:33:45;;;;;;;14.57;8.85;;;;;;;10.60;71.77;99952.94;4483455;31;33684;-79
2022/10/22 05:36:15;;;;;;;14.80;9.00;;;;;;;11.04;70.19;99946.34;4481370;31;33547;-78
2022/10/22 05:38:43;;;;;;;16.08;9.75;;;;;;;10.81;70.90;99951.34;4485033;31;34425;-78
2022/10/22 05:41:19;;;;;;;16.23;8.77;;;;;;;10.43;72.16;99953.06;4479152;31;33853;-78
2022/10/22 05:43:47;;;;;;;14.38;8.93;;;;;;;10.32;72.65;99943.88;4478005;31;34355;-78
2022/10/22 05:46:16;;;;;;;19.77;9.27;;;;;;;10.38;72.70;99954.53;4475555;31;33808;-78
2022/10/22 05:48:54;;;;;;;14.43;9.32;;;;;;;10.51;72.20;99950.84;4489062;31;33834;-79
2022/10/22 05:51:23;;;;;;;20.20;9.70;;;;;;;10.26;73.16;99961.69;4483058;31;34072;-78
2022/10/22 05:53:56;;;;;;;21.98;11.85;;;;;;;10.11;73.89;99963.53;4490743;31;32545;-78
2022/10/22 05:56:25;;;;;;;21.27;13.60;;;;;;;10.27;73.28;99970.34;4483282;31;32405;-78
2022/10/22 05:58:53;;;;;;;26.75;14.05;;;;;;;10.07;74.21;99965.06;4484514;31;33778;-78
2022/10/22 06:01:22;;;;;;;22.08;13.25;;;;;;;10.40;72.83;99958.06;4493884;31;33811;-78
2022/10/22 06:03:53;;;;;;;22.10;12.70;;;;;;;10.57;72.36;99961.47;4480127;31;33984;-78
2022/10/22 06:06:26;;;;;;;25.37;14.00;;;;;;;10.92;71.00;99971.72;4475745;32;32741;-77
2022/10/22 06:08:55;;;;;;;28.60;13.73;;;;;;;11.12;70.29;99989.03;4473640;31;34001;-78
2022/10/22 06:11:22;;;;;;;20.37;12.50;;;;;;;11.02;70.82;99992.94;4471139;32;32309;-78
2022/10/22 06:13:50;;;;;;;19.50;10.88;;;;;;;11.36;69.26;99993.59;4470522;32;33419;-78
2022/10/22 06:16:18;;;;;;;19.70;10.80;;;;;;;11.11;70.12;99992.47;4481599;31;31489;-78
2022/10/22 06:18:45;;;;;;;16.30;10.32;;;;;;;10.57;71.68;99992.56;4476626;31;34392;-78
2022/10/22 06:21:14;;;;;;;18.25;10.75;;;;;;;10.21;73.28;99991.63;4480909;31;33910;-78
2022/10/22 06:23:42;;;;;;;19.70;11.35;;;;;;;10.25;73.18;99985.78;4480829;31;33687;-77
2022/10/22 06:26:10;;;;;;;19.12;11.50;;;;;;;10.59;71.90;99990.06;4481411;31;33569;-78
2022/10/22 06:28:38;;;;;;;17.77;11.10;;;;;;;10.81;71.03;99998.00;4477510;31;33769;-78
2022/10/22 06:31:05;;;;;;;19.48;11.32;;;;;;;10.71;71.69;99990.62;4475824;31;33862;-78
2022/10/22 06:33:36;;;;;;;16.67;10.52;;;;;;;11.28;69.79;99989.75;4477197;31;34689;-78
2022/10/22 06:36:07;;;;;;;19.15;10.40;;;;;;;11.75;67.97;99976.25;4477521;31;32816;-78
2022/10/22 06:38:35;;;;;;;17.75;10.35;;;;;;;11.90;67.59;99983.84;4473828;31;34013;-78
2022/10/22 06:41:08;;;;;;;18.90;11.05;;;;;;;11.89;67.84;99986.34;4481543;31;33847;-78
2022/10/22 06:43:36;;;;;;;18.23;10.10;;;;;;;11.46;68.89;99998.34;4481302;31;33134;-78
2022/10/22 06:46:06;;;;;;;16.15;10.35;;;;;;;11.87;68.23;100009.63;4477863;31;33526;-78
2022/10/22 06:48:34;;;;;;;16.25;10.27;;;;;;;12.17;67.01;100004.03;4476971;31;34579;-78
2022/10/22 06:51:04;;;;;;;19.58;10.52;;;;;;;12.49;66.18;100001.84;4483636;31;34481;-78
2022/10/22 06:53:31;;;;;;;16.23;10.48;;;;;;;12.81;64.92;100007.44;4482184;31;33471;-78
2022/10/22 06:56:07;;;;;;;17.23;9.90;;;;;;;13.07;63.99;99998.91;4488088;31;33508;-78
2022/10/22 06:58:35;;;;;;;15.85;9.73;;;;;;;13.46;62.30;99992.53;4495068;31;33956;-77
2022/10/22 07:01:13;;;;;;;44.60;17.10;;;;;;;13.40;61.67;99987.13;4490853;31;34655;-78
2022/10/22 07:03:41;;;;;;;66.32;22.48;;;;;;;13.21;62.55;100001.12;4489212;31;33713;-77
2022/10/22 07:06:10;;;;;;;68.37;22.83;;;;;;;12.96;63.32;100010.59;4473430;31;31866;-78
2022/10/22 07:08:38;;;;;;;45.47;16.65;;;;;;;13.22;62.86;100005.53;4473740;31;33720;-78
2022/10/22 07:11:26;;;;;;;39.03;15.68;;;;;;;13.73;61.06;99987.44;4481003;31;34513;-78
2022/10/22 07:13:55;;;;;;;22.35;11.70;;;;;;;13.59;61.57;99983.47;4483244;31;33807;-77
2022/10/22 07:16:23;;;;;;;20.27;10.68;;;;;;;13.65;61.27;99973.28;4491606;31;33212;-77
2022/10/22 07:18:59;;;;;;;21.42;11.52;;;;;;;13.48;61.62;99977.87;4481077;31;32757;-77
2022/10/22 07:21:27;;;;;;;20.40;11.10;;;;;;;13.33;61.06;99988.63;4484500;31;33675;-78
2022/10/22 07:23:55;;;;;;;20.35;11.85;;;;;;;13.57;60.53;99981.69;4482038;31;35656;-78
2022/10/22 07:26:27;;;;;;;20.37;11.00;;;;;;;13.57;60.81;99980.81;4480072;31;32896;-78
2022/10/22 07:28:55;;;;;;;17.33;12.15;;;;;;;13.65;60.51;99983.69;4483448;31;33964;-78
2022/10/22 07:31:22;;;;;;;17.50;10.07;;;;;;;13.60;59.94;99985.22;4477130;32;33192;-78
2022/10/22 07:33:50;;;;;;;16.42;10.05;;;;;;;13.53;60.80;99985.00;4478885;31;33785;-78
2022/10/22 07:36:17;;;;;;;18.25;9.82;;;;;;;13.47;61.21;99986.53;4481850;31;34269;-77
2022/10/22 07:38:46;;;;;;;15.27;8.45;;;;;;;13.83;60.58;99999.06;4479142;31;34760;-77
2022/10/22 07:41:15;;;;;;;15.25;8.20;;;;;;;13.72;59.96;99980.47;4477627;31;34536;-76
2022/10/22 07:43:43;;;;;;;14.85;8.40;;;;;;;13.80;59.60;99973.81;4477993;31;33951;-78
2022/10/22 07:46:10;;;;;;;13.68;7.47;;;;;;;13.80;59.87;99967.72;4471909;31;34021;-77
2022/10/22 07:48:38;;;;;;;12.70;8.23;;;;;;;13.74;59.57;99974.47;4493016;31;33744;-77
2022/10/22 07:51:06;;;;;;;14.85;7.85;;;;;;;14.02;59.06;99979.75;4492180;31;34004;-78
2022/10/22 07:53:33;;;;;;;13.02;8.55;;;;;;;14.00;58.23;99978.81;4479414;31;34263;-78
2022/10/22 07:56:01;;;;;;;11.10;7.70;;;;;;;14.03;58.51;99984.13;4477139;31;34023;-78
2022/10/22 07:58:29;;;;;;;14.60;8.30;;;;;;;14.30;57.71;99982.44;4484403;31;34491;-78
2022/10/22 08:00:59;;;;;;;14.93;8.40;;;;;;;14.27;57.46;99987.53;4444331;32;36532;-78
2022/10/22 08:03:28;;;;;;;13.80;8.00;;;;;;;14.42;56.75;99975.84;4445388;32;33671;-78
2022/10/22 08:05:56;;;;;;;15.32;8.07;;;;;;;14.30;57.01;99972.00;4443706;32;33541;-78
2022/10/22 08:08:23;;;;;;;15.45;8.50;;;;;;;14.79;55.72;99983.13;4446877;32;33662;-78
2022/10/22 08:10:58;;;;;;;17.50;8.02;;;;;;;14.45;55.36;99989.88;4447222;32;33913;-78
2022/10/22 08:13:27;;;;;;;16.48;8.40;;;;;;;14.75;55.70;99987.34;4440900;32;33736;-78
2022/10/22 08:15:54;;;;;;;12.25;7.72;;;;;;;15.13;54.70;99985.03;4441552;32;33587;-78
2022/10/22 08:18:24;;;;;;;19.00;8.07;;;;;;;15.63;53.24;99981.19;4443195;32;33697;-78
2022/10/22 08:20:52;;;;;;;15.02;8.00;;;;;;;15.63;52.75;99981.19;4450197;32;33749;-79
2022/10/22 08:23:19;;;;;;;13.57;7.90;;;;;;;15.78;53.00;99984.25;4447322;32;33550;-78
2022/10/22 08:25:56;;;;;;;18.55;8.43;;;;;;;16.16;52.13;99983.47;4440880;32;34264;-78
2022/10/22 08:28:23;;;;;;;15.70;8.18;;;;;;;16.07;52.47;99989.31;4439937;32;33613;-78
2022/10/22 08:30:51;;;;;;;15.70;7.93;;;;;;;16.09;51.94;99982.44;4441090;32;34696;-78
2022/10/22 08:33:18;;;;;;;18.48;9.48;;;;;;;16.20;51.89;99978.34;4441240;32;33893;-78
2022/10/22 08:35:50;;;;;;;16.37;8.75;;;;;;;16.14;52.08;99985.16;4444859;32;33440;-75
2022/10/22 08:38:18;;;;;;;12.60;8.30;;;;;;;16.64;50.93;99986.37;4446686;32;33918;-79
2022/10/22 08:40:48;;;;;;;13.45;8.45;;;;;;;16.69;51.02;99979.53;4446324;32;34766;-78
2022/10/22 08:43:41;;;;;;;15.27;8.65;;;;;;;16.79;50.86;99979.75;4446970;32;33085;-78
2022/10/22 08:46:27;;;;;;;18.52;8.63;;;;;;;16.18;52.23;99980.03;4441864;32;33886;-78
2022/10/22 08:48:57;;;;;;;15.02;8.13;;;;;;;16.59;51.16;99995.88;4447939;32;33928;-78
2022/10/22 08:51:26;;;;;;;15.43;9.10;;;;;;;16.92;50.47;99987.06;4434892;32;33349;-78
2022/10/22 08:54:10;;;;;;;16.55;9.40;;;;;;;16.73;51.22;99992.66;4437503;32;32181;-78
2022/10/22 08:56:41;;;;;;;21.00;10.17;;;;;;;16.80;50.64;99989.34;4442736;32;33370;-78
2022/10/22 08:59:43;;;;;;;14.98;8.55;;;;;;;16.21;51.53;99987.09;4458241;32;33057;-79
2022/10/22 09:02:35;;;;;;;15.60;8.73;;;;;;;16.48;51.37;99981.66;4445213;31;33702;-78
2022/10/22 09:05:41;;;;;;;16.60;8.77;;;;;;;16.80;50.53;99986.72;4496243;31;34690;-78
2022/10/22 09:08:13;;;;;;;16.85;9.35;;;;;;;16.93;50.42;99998.41;4472423;31;34209;-78
2022/10/22 09:10:45;;;;;;;13.93;8.98;;;;;;;16.97;50.51;99995.00;4473335;32;33780;-78
2022/10/22 09:13:17;;;;;;;15.05;9.18;;;;;;;17.02;50.04;99986.41;4479524;31;33936;-78
2022/10/22 09:15:50;;;;;;;16.37;9.20;;;;;;;17.10;50.29;99982.19;4475696;31;33771;-79
2022/10/22 09:18:30;;;;;;;16.10;9.23;;;;;;;17.33;50.07;99981.81;4482720;31;34226;-78
2022/10/22 09:21:06;;;;;;;20.55;9.60;;;;;;;17.17;49.89;99969.22;4480332;31;33752;-78
2022/10/22 09:23:49;;;;;;;15.32;8.85;;;;;;;17.46;49.13;99973.34;4478826;31;33809;-78
2022/10/22 09:26:16;;;;;;;17.65;9.85;;;;;;;17.29;49.43;99972.13;4485486;31;33889;-78
2022/10/22 09:28:49;;;;;;;16.65;9.35;;;;;;;17.44;49.14;99979.38;4483749;31;34219;-78
2022/10/22 09:31:17;;;;;;;18.25;10.25;;;;;;;17.80;48.49;99987.06;4482951;31;34614;-78
2022/10/22 09:33:50;;;;;;;16.45;9.50;;;;;;;17.76;48.68;99990.47;4493193;31;34552;-78
2022/10/22 09:36:21;;;;;;;19.10;9.65;;;;;;;17.76;48.83;99998.34;4487516;31;32732;-78
2022/10/22 09:38:51;;;;;;;17.62;9.82;;;;;;;17.33;49.86;100002.75;4481071;31;34570;-78
2022/10/22 09:41:20;;;;;;;17.40;9.73;;;;;;;17.31;49.45;99993.97;4480172;31;34397;-79
2022/10/22 09:43:48;;;;;;;16.17;9.60;;;;;;;17.35;49.32;99997.53;4478201;32;34633;-78
2022/10/22 09:46:23;;;;;;;14.70;8.55;;;;;;;17.15;50.03;100008.47;4493882;31;33383;-78
2022/10/22 09:49:17;;;;;;;16.60;10.52;;;;;;;17.27;50.60;100002.63;4492825;31;33395;-79
2022/10/22 09:51:52;;;;;;;17.00;9.55;;;;;;;17.31;50.00;99978.28;4478696;31;34054;-78
2022/10/22 09:54:22;;;;;;;18.27;10.20;;;;;;;17.56;49.53;99983.97;4493762;31;34566;-78
2022/10/22 09:57:15;;;;;;;14.45;9.63;;;;;;;17.58;49.77;99982.28;4495986;31;34779;-78
2022/10/22 09:59:46;;;;;;;17.23;10.13;;;;;;;17.48;49.69;99982.09;4488763;31;34367;-78
2022/10/22 10:02:20;;;;;;;21.42;10.63;;;;;;;17.76;49.04;99998.34;4472803;31;33646;-78
2022/10/22 10:05:06;;;;;;;19.30;11.15;;;;;;;17.78;49.30;99991.38;4493153;31;34021;-77
2022/10/22 10:07:34;;;;;;;20.80;11.65;;;;;;;17.80;48.83;99984.44;4486144;31;34591;-78
2022/10/22 10:10:05;;;;;;;18.87;11.73;;;;;;;17.64;49.31;99979.78;4492570;31;33316;-78
2022/10/22 10:12:43;;;;;;;18.52;11.85;;;;;;;17.87;48.91;99980.25;4477090;31;33729;-77
2022/10/22 10:15:42;;;;;;;15.88;10.10;;;;;;;17.80;49.08;99968.72;4474868;31;33771;-77
2022/10/22 10:18:29;;;;;;;17.42;11.05;;;;;;;17.69;49.29;99968.53;4493992;31;33677;-77
2022/10/22 10:21:09;;;;;;;20.92;11.27;;;;;;;18.11;48.64;99971.91;4491098;31;33637;-78
2022/10/22 10:23:59;;;;;;;17.40;11.82;;;;;;;18.07;48.58;99976.22;4489489;31;34069;-76
2022/10/22 10:26:33;;;;;;;18.92;11.68;;;;;;;18.11;48.67;99982.41;4481091;32;34588;-77
2022/10/22 10:29:29;;;;;;;18.98;12.25;;;;;;;18.30;48.22;99977.47;4476890;31;33696;-77
2022/10/22 10:32:05;;;;;;;19.90;11.63;;;;;;;18.19;48.74;99966.81;4487908;31;33272;-76
2022/10/22 10:34:50;;;;;;;19.95;12.00;;;;;;;18.13;48.87;99972.81;4483362;31;34383;-76
2022/10/22 10:37:26;;;;;;;19.23;11.95;;;;;;;17.86;49.28;99963.63;4490110;31;33734;-76
2022/10/22 10:40:38;;;;;;;19.73;11.80;;;;;;;18.14;48.82;99964.13;4483431;31;33835;-77
2022/10/22 10:43:12;;;;;;;17.33;11.85;;;;;;;18.40;48.69;99976.75;4469343;32;33073;-77
2022/10/22 10:46:18;;;;;;;21.15;12.63;;;;;;;18.28;48.95;99972.19;4488044;31;33877;-76
2022/10/22 10:48:54;;;;;;;21.55;12.82;;;;;;;18.40;48.61;99987.25;4477387;31;33784;-78
2022/10/22 10:51:49;;;;;;;19.83;12.60;;;;;;;18.43;48.34;99993.44;4485689;32;34190;-76
2022/10/22 10:54:26;;;;;;;21.55;12.75;;;;;;;18.62;48.15;99999.84;4474811;31;33485;-77
2022/10/22 10:57:01;;;;;;;24.17;13.07;;;;;;;18.36;48.63;99995.94;4481617;31;34067;-77
2022/10/22 10:59:38;;;;;;;20.27;12.95;;;;;;;18.00;49.51;99997.06;4489891;31;33700;-76
2022/10/22 11:02:44;;;;;;;23.25;12.60;;;;;;;18.39;48.38;99996.88;4489402;31;34495;-77
2022/10/22 11:05:15;;;;;;;18.77;11.85;;;;;;;18.64;48.20;99999.88;4488643;31;33510;-77
2022/10/22 11:07:49;;;;;;;21.42;13.10;;;;;;;18.56;48.38;99994.50;4488622;31;33098;-76
2022/10/22 11:10:29;;;;;;;19.30;13.20;;;;;;;18.38;49.23;99994.22;4475651;31;33969;-77
2022/10/22 11:12:58;;;;;;;;;;;;;;;18.38;49.45;99991.59;4484826;31;33888;-76
2022/10/22 11:15:30;;;;;;;21.33;12.23;;;;;;;18.47;49.42;99983.88;4484200;32;33332;-77
2022/10/22 11:18:03;;;;;;;19.83;12.45;;;;;;;18.32;49.62;99983.63;4485043;31;34404;-77
2022/10/22 11:20:46;;;;;;;23.27;12.93;;;;;;;18.43;49.38;99982.94;4494726;31;33938;-76
2022/10/22 11:23:17;;;;;;;23.80;12.55;;;;;;;18.26;49.49;99980.03;4485346;31;34187;-77
2022/10/22 11:25:49;;;;;;;23.83;13.15;;;;;;;18.56;49.15;99973.53;4474073;32;34287;-77
2022/10/22 11:28:27;;;;;;;20.85;12.88;;;;;;;18.44;49.64;99973.31;4487268;31;33617;-77
2022/10/22 11:31:06;;;;;;;20.98;13.13;;;;;;;18.34;49.69;99956.56;4489100;31;33717;-76
2022/10/22 11:33:45;;;;;;;19.17;13.60;;;;;;;18.64;49.26;99956.16;4479130;31;33907;-76
2022/10/22 11:36:12;;;;;;;17.87;12.20;;;;;;;18.63;49.10;99954.38;4497917;31;34607;-76
2022/10/22 11:38:40;;;;;;;24.20;12.98;;;;;;;18.91;49.13;99954.81;4490396;31;34519;-77
2022/10/22 11:41:13;;;;;;;23.75;13.10;;;;;;;18.87;49.28;99955.59;4485012;31;34773;-77
2022/10/22 11:44:18;;;;;;;25.45;13.15;;;;;;;18.94;48.98;99960.09;4477424;31;33859;-77
2022/10/22 11:46:52;;;;;;;22.23;12.73;;;;;;;19.03;48.98;99949.72;4477564;31;33610;-78